sensor_id;sensor_type;location;lat;lon;timestamp;temperature;humidity
32400;DHT22;45045;45.440;9.178;2023-02-15T00:01:40;12.00;90.90
32400;DHT22;45045;45.440;9.178;2023-02-15T00:04:07;11.90;91.00
32400;DHT22;45045;45.440;9.178;2023-02-15T00:06:37;11.90;91.00
32400;DHT22;45045;45.440;9.178;2023-02-15T00:09:02;11.90;91.00
32400;DHT22;45045;45.440;9.178;2023-02-15T00:11:28;11.80;91.30
32400;DHT22;45045;45.440;9.178;2023-02-15T00:14:22;11.80;91.40
32400;DHT22;45045;45.440;9.178;2023-02-15T00:16:50;11.80;91.40
32400;DHT22;45045;45.440;9.178;2023-02-15T00:19:20;11.80;91.50
32400;DHT22;45045;45.440;9.178;2023-02-15T00:21:47;11.80;91.50
32400;DHT22;45045;45.440;9.178;2023-02-15T00:24:15;11.80;91.60
32400;DHT22;45045;45.440;9.178;2023-02-15T00:26:42;11.70;91.70
32400;DHT22;45045;45.440;9.178;2023-02-15T00:29:09;11.80;91.70
32400;DHT22;45045;45.440;9.178;2023-02-15T00:31:35;11.70;91.80
32400;DHT22;45045;45.440;9.178;2023-02-15T00:34:22;11.70;91.90
32400;DHT22;45045;45.440;9.178;2023-02-15T00:36:49;11.60;92.00
32400;DHT22;45045;45.440;9.178;2023-02-15T00:39:16;11.60;92.20
32400;DHT22;45045;45.440;9.178;2023-02-15T00:41:42;11.60;92.20
32400;DHT22;45045;45.440;9.178;2023-02-15T00:44:08;11.60;92.10
32400;DHT22;45045;45.440;9.178;2023-02-15T00:46:35;11.60;92.30
32400;DHT22;45045;45.440;9.178;2023-02-15T00:49:01;11.60;92.30
32400;DHT22;45045;45.440;9.178;2023-02-15T00:51:27;11.60;92.30
32400;DHT22;45045;45.440;9.178;2023-02-15T00:53:53;11.60;92.30
32400;DHT22;45045;45.440;9.178;2023-02-15T00:56:18;11.60;92.60
32400;DHT22;45045;45.440;9.178;2023-02-15T00:58:44;11.50;92.80
32400;DHT22;45045;45.440;9.178;2023-02-15T01:01:16;11.50;93.10
32400;DHT22;45045;45.440;9.178;2023-02-15T01:03:42;11.40;93.00
32400;DHT22;45045;45.440;9.178;2023-02-15T01:06:09;11.40;93.10
32400;DHT22;45045;45.440;9.178;2023-02-15T01:08:34;11.40;93.20
32400;DHT22;45045;45.440;9.178;2023-02-15T01:11:05;11.40;93.20
32400;DHT22;45045;45.440;9.178;2023-02-15T01:13:32;11.50;95.30
32400;DHT22;45045;45.440;9.178;2023-02-15T01:15:58;11.50;94.00
32400;DHT22;45045;45.440;9.178;2023-02-15T01:18:23;11.40;94.20
32400;DHT22;45045;45.440;9.178;2023-02-15T01:20:49;11.40;95.70
32400;DHT22;45045;45.440;9.178;2023-02-15T01:23:15;11.40;95.50
32400;DHT22;45045;45.440;9.178;2023-02-15T01:25:41;11.40;94.60
32400;DHT22;45045;45.440;9.178;2023-02-15T01:28:07;11.30;94.80
32400;DHT22;45045;45.440;9.178;2023-02-15T01:30:33;11.30;95.90
32400;DHT22;45045;45.440;9.178;2023-02-15T01:32:59;11.30;94.60
32400;DHT22;45045;45.440;9.178;2023-02-15T01:35:26;11.20;94.30
32400;DHT22;45045;45.440;9.178;2023-02-15T01:37:52;11.20;94.20
32400;DHT22;45045;45.440;9.178;2023-02-15T01:40:18;11.20;94.20
32400;DHT22;45045;45.440;9.178;2023-02-15T01:42:44;11.20;94.10
32400;DHT22;45045;45.440;9.178;2023-02-15T01:45:26;11.20;94.10
32400;DHT22;45045;45.440;9.178;2023-02-15T01:48:03;11.20;94.10
32400;DHT22;45045;45.440;9.178;2023-02-15T01:55:33;11.10;94.00
32400;DHT22;45045;45.440;9.178;2023-02-15T01:58:00;11.00;94.10
32400;DHT22;45045;45.440;9.178;2023-02-15T02:00:26;11.00;94.20
32400;DHT22;45045;45.440;9.178;2023-02-15T02:02:54;11.00;94.30
32400;DHT22;45045;45.440;9.178;2023-02-15T02:05:21;10.90;94.40
32400;DHT22;45045;45.440;9.178;2023-02-15T02:07:50;10.90;94.40
32400;DHT22;45045;45.440;9.178;2023-02-15T02:10:19;10.90;94.30
32400;DHT22;45045;45.440;9.178;2023-02-15T02:12:47;10.90;94.50
32400;DHT22;45045;45.440;9.178;2023-02-15T02:15:15;10.90;94.20
32400;DHT22;45045;45.440;9.178;2023-02-15T02:18:01;10.90;95.80
32400;DHT22;45045;45.440;9.178;2023-02-15T02:33:48;10.80;96.40
32400;DHT22;45045;45.440;9.178;2023-02-15T02:36:30;10.80;95.50
32400;DHT22;45045;45.440;9.178;2023-02-15T02:39:23;10.80;96.20
32400;DHT22;45045;45.440;9.178;2023-02-15T02:42:02;10.70;95.20
32400;DHT22;45045;45.440;9.178;2023-02-15T02:50:05;10.50;95.50
32400;DHT22;45045;45.440;9.178;2023-02-15T02:52:58;10.60;95.40
32400;DHT22;45045;45.440;9.178;2023-02-15T03:01:16;10.40;95.50
32400;DHT22;45045;45.440;9.178;2023-02-15T03:03:50;10.40;95.90
32400;DHT22;45045;45.440;9.178;2023-02-15T03:06:20;10.40;96.10
32400;DHT22;45045;45.440;9.178;2023-02-15T03:08:52;10.40;96.00
32400;DHT22;45045;45.440;9.178;2023-02-15T03:11:20;10.30;96.00
32400;DHT22;45045;45.440;9.178;2023-02-15T03:13:47;10.20;96.10
32400;DHT22;45045;45.440;9.178;2023-02-15T03:16:16;10.20;96.10
32400;DHT22;45045;45.440;9.178;2023-02-15T03:19:00;10.20;96.20
32400;DHT22;45045;45.440;9.178;2023-02-15T03:24:03;10.20;96.30
32400;DHT22;45045;45.440;9.178;2023-02-15T03:26:33;10.20;96.40
32400;DHT22;45045;45.440;9.178;2023-02-15T03:29:00;10.20;96.50
32400;DHT22;45045;45.440;9.178;2023-02-15T03:31:31;10.20;96.50
32400;DHT22;45045;45.440;9.178;2023-02-15T03:34:03;10.20;96.50
32400;DHT22;45045;45.440;9.178;2023-02-15T03:39:18;10.20;96.60
32400;DHT22;45045;45.440;9.178;2023-02-15T03:42:08;10.10;96.40
32400;DHT22;45045;45.440;9.178;2023-02-15T03:44:55;10.10;96.60
32400;DHT22;45045;45.440;9.178;2023-02-15T03:47:30;10.10;96.50
32400;DHT22;45045;45.440;9.178;2023-02-15T03:50:10;10.00;96.60
32400;DHT22;45045;45.440;9.178;2023-02-15T03:52:59;10.00;96.80
32400;DHT22;45045;45.440;9.178;2023-02-15T03:55:27;10.00;96.60
32400;DHT22;45045;45.440;9.178;2023-02-15T03:57:54;9.90;96.70
32400;DHT22;45045;45.440;9.178;2023-02-15T04:00:43;9.90;96.70
32400;DHT22;45045;45.440;9.178;2023-02-15T04:03:45;9.90;96.70
32400;DHT22;45045;45.440;9.178;2023-02-15T04:06:15;9.80;96.80
32400;DHT22;45045;45.440;9.178;2023-02-15T04:08:41;9.70;96.90
32400;DHT22;45045;45.440;9.178;2023-02-15T04:11:26;9.70;97.50
32400;DHT22;45045;45.440;9.178;2023-02-15T04:13:51;9.70;97.90
32400;DHT22;45045;45.440;9.178;2023-02-15T04:16:23;9.70;97.90
32400;DHT22;45045;45.440;9.178;2023-02-15T04:18:48;9.70;97.70
32400;DHT22;45045;45.440;9.178;2023-02-15T04:21:33;9.70;97.90
32400;DHT22;45045;45.440;9.178;2023-02-15T04:24:18;9.60;97.80
32400;DHT22;45045;45.440;9.178;2023-02-15T04:27:04;9.60;98.00
32400;DHT22;45045;45.440;9.178;2023-02-15T04:29:30;9.60;97.80
32400;DHT22;45045;45.440;9.178;2023-02-15T04:31:59;9.50;98.00
32400;DHT22;45045;45.440;9.178;2023-02-15T04:34:25;9.50;97.80
32400;DHT22;45045;45.440;9.178;2023-02-15T04:36:51;9.50;98.40
32400;DHT22;45045;45.440;9.178;2023-02-15T04:39:17;9.50;98.20
32400;DHT22;45045;45.440;9.178;2023-02-15T04:41:44;9.50;98.70
32400;DHT22;45045;45.440;9.178;2023-02-15T04:44:10;9.50;98.10
32400;DHT22;45045;45.440;9.178;2023-02-15T04:46:36;9.50;98.20
32400;DHT22;45045;45.440;9.178;2023-02-15T04:49:02;9.50;98.30
32400;DHT22;45045;45.440;9.178;2023-02-15T04:51:28;9.50;98.00
32400;DHT22;45045;45.440;9.178;2023-02-15T04:53:54;9.40;97.90
32400;DHT22;45045;45.440;9.178;2023-02-15T04:56:20;9.40;98.20
32400;DHT22;45045;45.440;9.178;2023-02-15T04:58:46;9.40;98.90
32400;DHT22;45045;45.440;9.178;2023-02-15T05:01:12;9.40;98.80
32400;DHT22;45045;45.440;9.178;2023-02-15T05:03:38;9.40;98.40
32400;DHT22;45045;45.440;9.178;2023-02-15T05:06:04;9.40;98.30
32400;DHT22;45045;45.440;9.178;2023-02-15T05:08:30;9.40;98.50
32400;DHT22;45045;45.440;9.178;2023-02-15T05:10:57;9.50;98.50
32400;DHT22;45045;45.440;9.178;2023-02-15T05:13:23;9.40;98.30
32400;DHT22;45045;45.440;9.178;2023-02-15T05:15:51;9.40;98.40
32400;DHT22;45045;45.440;9.178;2023-02-15T05:18:18;9.40;98.30
32400;DHT22;45045;45.440;9.178;2023-02-15T05:20:44;9.40;98.40
32400;DHT22;45045;45.440;9.178;2023-02-15T05:23:10;9.40;98.70
32400;DHT22;45045;45.440;9.178;2023-02-15T05:25:36;9.40;98.90
32400;DHT22;45045;45.440;9.178;2023-02-15T05:28:21;9.30;98.60
32400;DHT22;45045;45.440;9.178;2023-02-15T05:30:50;9.30;98.90
32400;DHT22;45045;45.440;9.178;2023-02-15T05:33:17;9.30;98.90
32400;DHT22;45045;45.440;9.178;2023-02-15T05:35:43;9.20;99.00
32400;DHT22;45045;45.440;9.178;2023-02-15T05:38:09;9.30;99.00
32400;DHT22;45045;45.440;9.178;2023-02-15T05:40:34;9.30;98.90
32400;DHT22;45045;45.440;9.178;2023-02-15T05:43:00;9.30;99.00
32400;DHT22;45045;45.440;9.178;2023-02-15T05:45:26;9.20;98.60
32400;DHT22;45045;45.440;9.178;2023-02-15T05:47:52;9.10;98.40
32400;DHT22;45045;45.440;9.178;2023-02-15T05:50:18;9.10;98.70
32400;DHT22;45045;45.440;9.178;2023-02-15T05:52:44;9.00;99.10
32400;DHT22;45045;45.440;9.178;2023-02-15T05:55:09;9.10;99.30
32400;DHT22;45045;45.440;9.178;2023-02-15T05:57:36;9.10;99.10
32400;DHT22;45045;45.440;9.178;2023-02-15T06:00:05;9.20;99.20
32400;DHT22;45045;45.440;9.178;2023-02-15T06:02:35;9.20;99.20
32400;DHT22;45045;45.440;9.178;2023-02-15T06:05:01;9.20;99.50
32400;DHT22;45045;45.440;9.178;2023-02-15T06:07:27;9.20;99.30
32400;DHT22;45045;45.440;9.178;2023-02-15T06:09:52;9.20;99.30
32400;DHT22;45045;45.440;9.178;2023-02-15T06:12:18;9.20;99.30
32400;DHT22;45045;45.440;9.178;2023-02-15T06:14:44;9.20;99.20
32400;DHT22;45045;45.440;9.178;2023-02-15T06:17:09;9.10;99.50
32400;DHT22;45045;45.440;9.178;2023-02-15T06:19:35;9.00;99.70
32400;DHT22;45045;45.440;9.178;2023-02-15T06:22:01;9.00;99.90
32400;DHT22;45045;45.440;9.178;2023-02-15T06:24:26;9.20;99.90
32400;DHT22;45045;45.440;9.178;2023-02-15T06:26:52;9.30;99.90
32400;DHT22;45045;45.440;9.178;2023-02-15T06:29:17;9.40;99.70
32400;DHT22;45045;45.440;9.178;2023-02-15T06:31:43;9.30;99.60
32400;DHT22;45045;45.440;9.178;2023-02-15T06:34:09;9.40;99.60
32400;DHT22;45045;45.440;9.178;2023-02-15T06:36:34;9.30;99.80
32400;DHT22;45045;45.440;9.178;2023-02-15T06:39:00;9.40;99.90
32400;DHT22;45045;45.440;9.178;2023-02-15T06:41:27;9.40;99.90
32400;DHT22;45045;45.440;9.178;2023-02-15T06:43:52;9.40;99.90
32400;DHT22;45045;45.440;9.178;2023-02-15T06:46:18;9.30;99.90
32400;DHT22;45045;45.440;9.178;2023-02-15T06:48:44;9.30;99.90
32400;DHT22;45045;45.440;9.178;2023-02-15T06:51:09;9.30;99.90
32400;DHT22;45045;45.440;9.178;2023-02-15T06:53:35;9.40;99.80
32400;DHT22;45045;45.440;9.178;2023-02-15T06:56:05;9.30;98.90
32400;DHT22;45045;45.440;9.178;2023-02-15T06:58:41;10.50;99.90
32400;DHT22;45045;45.440;9.178;2023-02-15T07:01:08;10.30;98.20
32400;DHT22;45045;45.440;9.178;2023-02-15T07:03:35;9.80;97.60
32400;DHT22;45045;45.440;9.178;2023-02-15T07:06:03;9.60;98.60
32400;DHT22;45045;45.440;9.178;2023-02-15T07:08:31;9.40;98.80
32400;DHT22;45045;45.440;9.178;2023-02-15T07:10:57;10.00;99.40
32400;DHT22;45045;45.440;9.178;2023-02-15T07:13:42;10.90;98.40
32400;DHT22;45045;45.440;9.178;2023-02-15T07:16:08;11.80;99.90
32400;DHT22;45045;45.440;9.178;2023-02-15T07:18:35;12.40;99.90
32400;DHT22;45045;45.440;9.178;2023-02-15T07:21:01;12.80;99.90
32400;DHT22;45045;45.440;9.178;2023-02-15T07:23:28;13.20;99.90
32400;DHT22;45045;45.440;9.178;2023-02-15T07:26:00;13.50;99.90
32400;DHT22;45045;45.440;9.178;2023-02-15T07:28:26;13.70;99.90
32400;DHT22;45045;45.440;9.178;2023-02-15T07:30:51;13.90;99.90
32400;DHT22;45045;45.440;9.178;2023-02-15T07:33:17;14.10;99.90
32400;DHT22;45045;45.440;9.178;2023-02-15T07:35:49;14.30;99.90
32400;DHT22;45045;45.440;9.178;2023-02-15T07:38:16;14.40;92.00
32400;DHT22;45045;45.440;9.178;2023-02-15T07:40:42;14.50;92.30
32400;DHT22;45045;45.440;9.178;2023-02-15T07:43:08;14.60;98.30
32400;DHT22;45045;45.440;9.178;2023-02-15T07:45:34;14.70;97.40
32400;DHT22;45045;45.440;9.178;2023-02-15T07:48:03;14.90;98.50
32400;DHT22;45045;45.440;9.178;2023-02-15T07:50:28;15.10;98.90
32400;DHT22;45045;45.440;9.178;2023-02-15T07:52:54;15.20;98.60
32400;DHT22;45045;45.440;9.178;2023-02-15T07:55:20;15.30;98.40
32400;DHT22;45045;45.440;9.178;2023-02-15T07:57:48;15.50;98.20
32400;DHT22;45045;45.440;9.178;2023-02-15T08:00:17;15.60;97.10
32400;DHT22;45045;45.440;9.178;2023-02-15T08:02:51;15.80;98.20
32400;DHT22;45045;45.440;9.178;2023-02-15T08:05:37;16.00;97.50
32400;DHT22;45045;45.440;9.178;2023-02-15T08:08:03;16.20;96.50
32400;DHT22;45045;45.440;9.178;2023-02-15T08:10:32;16.40;95.70
32400;DHT22;45045;45.440;9.178;2023-02-15T08:13:16;16.50;94.90
32400;DHT22;45045;45.440;9.178;2023-02-15T08:15:51;16.60;94.00
32400;DHT22;45045;45.440;9.178;2023-02-15T08:18:17;16.70;93.00
32400;DHT22;45045;45.440;9.178;2023-02-15T08:20:49;16.80;92.20
32400;DHT22;45045;45.440;9.178;2023-02-15T08:23:15;16.90;91.70
32400;DHT22;45045;45.440;9.178;2023-02-15T08:25:40;17.00;91.30
32400;DHT22;45045;45.440;9.178;2023-02-15T08:28:06;17.10;90.80
32400;DHT22;45045;45.440;9.178;2023-02-15T08:30:32;17.20;90.40
32400;DHT22;45045;45.440;9.178;2023-02-15T08:32:58;17.30;90.00
32400;DHT22;45045;45.440;9.178;2023-02-15T08:35:24;17.30;88.80
32400;DHT22;45045;45.440;9.178;2023-02-15T08:37:50;17.40;87.20
32400;DHT22;45045;45.440;9.178;2023-02-15T08:40:16;17.50;85.10
32400;DHT22;45045;45.440;9.178;2023-02-15T08:42:42;17.70;85.80
32400;DHT22;45045;45.440;9.178;2023-02-15T08:45:08;17.80;81.50
32400;DHT22;45045;45.440;9.178;2023-02-15T08:47:33;18.00;80.00
32400;DHT22;45045;45.440;9.178;2023-02-15T08:49:59;18.30;76.20
32400;DHT22;45045;45.440;9.178;2023-02-15T08:52:25;18.30;79.00
32400;DHT22;45045;45.440;9.178;2023-02-15T08:54:50;18.50;79.90
32400;DHT22;45045;45.440;9.178;2023-02-15T08:57:16;18.50;81.10
32400;DHT22;45045;45.440;9.178;2023-02-15T08:59:42;18.60;81.20
32400;DHT22;45045;45.440;9.178;2023-02-15T09:02:09;18.70;80.50
32400;DHT22;45045;45.440;9.178;2023-02-15T09:04:35;19.20;74.60
32400;DHT22;45045;45.440;9.178;2023-02-15T09:07:01;19.30;75.50
32400;DHT22;45045;45.440;9.178;2023-02-15T09:09:29;19.50;73.90
32400;DHT22;45045;45.440;9.178;2023-02-15T09:11:56;19.60;75.10
32400;DHT22;45045;45.440;9.178;2023-02-15T09:14:22;19.60;75.70
32400;DHT22;45045;45.440;9.178;2023-02-15T09:16:51;19.70;74.90
32400;DHT22;45045;45.440;9.178;2023-02-15T09:19:18;19.90;72.00
32400;DHT22;45045;45.440;9.178;2023-02-15T09:21:44;19.90;72.00
32400;DHT22;45045;45.440;9.178;2023-02-15T09:24:12;20.00;69.30
32400;DHT22;45045;45.440;9.178;2023-02-15T09:26:41;20.60;62.50
32400;DHT22;45045;45.440;9.178;2023-02-15T09:29:08;20.90;62.00
32400;DHT22;45045;45.440;9.178;2023-02-15T09:31:40;20.80;67.30
32400;DHT22;45045;45.440;9.178;2023-02-15T09:34:07;20.90;63.70
32400;DHT22;45045;45.440;9.178;2023-02-15T09:36:34;20.80;69.00
32400;DHT22;45045;45.440;9.178;2023-02-15T09:50:31;21.40;66.80
32400;DHT22;45045;45.440;9.178;2023-02-15T09:56:18;22.30;60.80
32400;DHT22;45045;45.440;9.178;2023-02-15T09:58:42;22.30;59.60
32400;DHT22;45045;45.440;9.178;2023-02-15T10:04:04;22.50;60.80
32400;DHT22;45045;45.440;9.178;2023-02-15T10:10:02;22.60;60.00
32400;DHT22;45045;45.440;9.178;2023-02-15T10:28:19;23.50;55.70
32400;DHT22;45045;45.440;9.178;2023-02-15T10:30:51;23.90;54.10
32400;DHT22;45045;45.440;9.178;2023-02-15T10:33:31;23.70;55.10
32400;DHT22;45045;45.440;9.178;2023-02-15T10:41:51;25.50;49.00
32400;DHT22;45045;45.440;9.178;2023-02-15T10:52:42;23.60;57.00
32400;DHT22;45045;45.440;9.178;2023-02-15T10:55:23;24.60;50.50
32400;DHT22;45045;45.440;9.178;2023-02-15T11:06:35;26.50;41.60
32400;DHT22;45045;45.440;9.178;2023-02-15T11:09:10;26.70;41.10
32400;DHT22;45045;45.440;9.178;2023-02-15T11:11:38;27.00;40.20
32400;DHT22;45045;45.440;9.178;2023-02-15T11:17:04;28.10;40.10
32400;DHT22;45045;45.440;9.178;2023-02-15T11:19:35;28.50;40.50
32400;DHT22;45045;45.440;9.178;2023-02-15T11:22:05;28.80;37.80
32400;DHT22;45045;45.440;9.178;2023-02-15T11:24:38;28.80;38.30
32400;DHT22;45045;45.440;9.178;2023-02-15T11:27:19;28.70;39.00
32400;DHT22;45045;45.440;9.178;2023-02-15T11:32:35;28.30;37.90
32400;DHT22;45045;45.440;9.178;2023-02-15T11:35:04;28.40;37.70
32400;DHT22;45045;45.440;9.178;2023-02-15T11:42:47;29.00;37.90
32400;DHT22;45045;45.440;9.178;2023-02-15T11:45:30;29.10;35.80
32400;DHT22;45045;45.440;9.178;2023-02-15T11:47:57;29.40;36.30
32400;DHT22;45045;45.440;9.178;2023-02-15T11:50:27;29.80;36.10
32400;DHT22;45045;45.440;9.178;2023-02-15T11:52:58;29.70;44.90
32400;DHT22;45045;45.440;9.178;2023-02-15T11:55:27;28.80;50.90
32400;DHT22;45045;45.440;9.178;2023-02-15T11:58:02;28.30;52.90
32400;DHT22;45045;45.440;9.178;2023-02-15T12:00:37;28.00;53.80
32400;DHT22;45045;45.440;9.178;2023-02-15T12:06:28;28.00;53.90
32400;DHT22;45045;45.440;9.178;2023-02-15T12:11:48;27.90;53.40
32400;DHT22;45045;45.440;9.178;2023-02-15T12:14:14;28.00;53.00
32400;DHT22;45045;45.440;9.178;2023-02-15T12:16:47;27.90;52.60
32400;DHT22;45045;45.440;9.178;2023-02-15T12:19:27;28.10;53.00
32400;DHT22;45045;45.440;9.178;2023-02-15T12:21:54;28.30;51.50
32400;DHT22;45045;45.440;9.178;2023-02-15T12:24:44;28.40;51.10
32400;DHT22;45045;45.440;9.178;2023-02-15T12:27:17;28.50;51.20
32400;DHT22;45045;45.440;9.178;2023-02-15T12:32:46;29.10;51.00
32400;DHT22;45045;45.440;9.178;2023-02-15T12:35:30;29.10;51.00
32400;DHT22;45045;45.440;9.178;2023-02-15T12:40:36;28.70;51.00
32400;DHT22;45045;45.440;9.178;2023-02-15T12:43:03;28.70;50.30
32400;DHT22;45045;45.440;9.178;2023-02-15T12:45:36;28.80;49.50
32400;DHT22;45045;45.440;9.178;2023-02-15T12:48:14;29.10;48.20
32400;DHT22;45045;45.440;9.178;2023-02-15T12:50:48;29.40;47.50
32400;DHT22;45045;45.440;9.178;2023-02-15T12:55:56;29.70;46.40
32400;DHT22;45045;45.440;9.178;2023-02-15T12:58:26;30.00;45.90
32400;DHT22;45045;45.440;9.178;2023-02-15T13:01:15;30.10;45.40
32400;DHT22;45045;45.440;9.178;2023-02-15T13:04:00;30.10;44.00
32400;DHT22;45045;45.440;9.178;2023-02-15T13:06:28;29.80;44.90
32400;DHT22;45045;45.440;9.178;2023-02-15T13:08:58;29.40;44.50
32400;DHT22;45045;45.440;9.178;2023-02-15T13:11:31;29.40;45.00
32400;DHT22;45045;45.440;9.178;2023-02-15T13:14:02;29.00;45.60
32400;DHT22;45045;45.440;9.178;2023-02-15T13:16:38;29.20;45.70
32400;DHT22;45045;45.440;9.178;2023-02-15T13:19:35;29.60;45.40
32400;DHT22;45045;45.440;9.178;2023-02-15T13:22:26;29.60;44.90
32400;DHT22;45045;45.440;9.178;2023-02-15T13:24:57;29.60;44.70
32400;DHT22;45045;45.440;9.178;2023-02-15T13:27:35;29.80;38.10
32400;DHT22;45045;45.440;9.178;2023-02-15T13:30:30;29.80;36.00
32400;DHT22;45045;45.440;9.178;2023-02-15T13:33:04;30.00;35.50
32400;DHT22;45045;45.440;9.178;2023-02-15T13:35:45;30.40;38.30
32400;DHT22;45045;45.440;9.178;2023-02-15T13:38:37;30.80;34.70
32400;DHT22;45045;45.440;9.178;2023-02-15T13:41:16;30.70;35.30
32400;DHT22;45045;45.440;9.178;2023-02-15T13:44:09;30.40;34.00
32400;DHT22;45045;45.440;9.178;2023-02-15T13:51:46;29.50;34.10
32400;DHT22;45045;45.440;9.178;2023-02-15T14:08:20;29.50;33.50
32400;DHT22;45045;45.440;9.178;2023-02-15T14:16:33;29.30;33.90
32400;DHT22;45045;45.440;9.178;2023-02-15T14:21:44;29.10;42.40
32400;DHT22;45045;45.440;9.178;2023-02-15T14:26:47;28.90;44.30
32400;DHT22;45045;45.440;9.178;2023-02-15T14:32:12;29.00;34.80
32400;DHT22;45045;45.440;9.178;2023-02-15T14:34:50;28.90;36.30
32400;DHT22;45045;45.440;9.178;2023-02-15T14:43:49;27.50;35.20
32400;DHT22;45045;45.440;9.178;2023-02-15T14:48:53;27.00;35.20
32400;DHT22;45045;45.440;9.178;2023-02-15T14:54:08;26.30;36.50
32400;DHT22;45045;45.440;9.178;2023-02-15T14:56:34;27.00;37.10
32400;DHT22;45045;45.440;9.178;2023-02-15T14:59:14;27.20;35.20
32400;DHT22;45045;45.440;9.178;2023-02-15T15:01:42;26.70;35.30
32400;DHT22;45045;45.440;9.178;2023-02-15T15:04:27;26.90;35.80
32400;DHT22;45045;45.440;9.178;2023-02-15T15:07:04;27.10;35.20
32400;DHT22;45045;45.440;9.178;2023-02-15T15:09:36;26.80;35.50
32400;DHT22;45045;45.440;9.178;2023-02-15T15:14:46;25.70;36.30
32400;DHT22;45045;45.440;9.178;2023-02-15T15:20:46;25.50;36.70
32400;DHT22;45045;45.440;9.178;2023-02-15T15:22:47;25.20;37.20
32400;DHT22;45045;45.440;9.178;2023-02-15T15:25:41;25.00;37.40
32400;DHT22;45045;45.440;9.178;2023-02-15T15:28:08;25.30;37.30
32400;DHT22;45045;45.440;9.178;2023-02-15T15:33:24;25.90;36.70
32400;DHT22;45045;45.440;9.178;2023-02-15T15:39:19;25.80;37.00
32400;DHT22;45045;45.440;9.178;2023-02-15T15:49:58;24.50;37.70
32400;DHT22;45045;45.440;9.178;2023-02-15T15:52:26;24.60;37.20
32400;DHT22;45045;45.440;9.178;2023-02-15T15:55:02;24.30;37.20
32400;DHT22;45045;45.440;9.178;2023-02-15T15:57:38;24.30;37.60
32400;DHT22;45045;45.440;9.178;2023-02-15T16:02:51;23.70;38.30
32400;DHT22;45045;45.440;9.178;2023-02-15T16:05:17;23.90;39.20
32400;DHT22;45045;45.440;9.178;2023-02-15T16:07:43;23.70;39.10
32400;DHT22;45045;45.440;9.178;2023-02-15T16:12:47;23.50;39.70
32400;DHT22;45045;45.440;9.178;2023-02-15T16:17:43;23.00;39.70
32400;DHT22;45045;45.440;9.178;2023-02-15T16:23:16;22.80;40.70
32400;DHT22;45045;45.440;9.178;2023-02-15T16:26:09;22.70;40.70
32400;DHT22;45045;45.440;9.178;2023-02-15T16:28:38;22.90;42.20
32400;DHT22;45045;45.440;9.178;2023-02-15T16:31:12;22.90;40.70
32400;DHT22;45045;45.440;9.178;2023-02-15T16:33:40;22.80;41.30
32400;DHT22;45045;45.440;9.178;2023-02-15T16:36:10;22.60;42.70
32400;DHT22;45045;45.440;9.178;2023-02-15T16:43:37;22.00;44.40
32400;DHT22;45045;45.440;9.178;2023-02-15T16:46:08;21.90;44.60
32400;DHT22;45045;45.440;9.178;2023-02-15T16:48:39;21.80;44.70
32400;DHT22;45045;45.440;9.178;2023-02-15T16:51:06;21.80;45.00
32400;DHT22;45045;45.440;9.178;2023-02-15T16:53:31;21.80;45.40
32400;DHT22;45045;45.440;9.178;2023-02-15T16:56:02;21.70;45.20
32400;DHT22;45045;45.440;9.178;2023-02-15T16:58:41;21.50;45.50
32400;DHT22;45045;45.440;9.178;2023-02-15T17:01:11;21.20;46.50
32400;DHT22;45045;45.440;9.178;2023-02-15T17:03:37;21.00;46.60
32400;DHT22;45045;45.440;9.178;2023-02-15T17:08:48;20.60;47.90
32400;DHT22;45045;45.440;9.178;2023-02-15T17:11:21;20.40;48.30
32400;DHT22;45045;45.440;9.178;2023-02-15T17:16:31;20.30;49.10
32400;DHT22;45045;45.440;9.178;2023-02-15T17:19:00;20.20;49.00
32400;DHT22;45045;45.440;9.178;2023-02-15T17:21:31;20.20;49.70
32400;DHT22;45045;45.440;9.178;2023-02-15T17:23:59;20.10;49.70
32400;DHT22;45045;45.440;9.178;2023-02-15T17:26:36;20.10;50.10
32400;DHT22;45045;45.440;9.178;2023-02-15T17:29:26;19.90;50.50
32400;DHT22;45045;45.440;9.178;2023-02-15T17:31:55;19.80;51.10
32400;DHT22;45045;45.440;9.178;2023-02-15T17:34:47;19.70;51.30
32400;DHT22;45045;45.440;9.178;2023-02-15T17:37:42;19.60;51.70
32400;DHT22;45045;45.440;9.178;2023-02-15T17:40:27;19.60;53.20
32400;DHT22;45045;45.440;9.178;2023-02-15T17:42:52;19.50;51.30
32400;DHT22;45045;45.440;9.178;2023-02-15T17:45:19;19.40;50.80
32400;DHT22;45045;45.440;9.178;2023-02-15T17:47:47;19.40;51.80
32400;DHT22;45045;45.440;9.178;2023-02-15T17:50:22;19.20;51.60
32400;DHT22;45045;45.440;9.178;2023-02-15T17:52:49;19.10;52.20
32400;DHT22;45045;45.440;9.178;2023-02-15T17:55:18;19.00;52.60
32400;DHT22;45045;45.440;9.178;2023-02-15T17:58:01;19.10;52.90
32400;DHT22;45045;45.440;9.178;2023-02-15T18:00:28;18.90;53.10
32400;DHT22;45045;45.440;9.178;2023-02-15T18:03:13;18.80;53.20
32400;DHT22;45045;45.440;9.178;2023-02-15T18:05:57;18.70;53.70
32400;DHT22;45045;45.440;9.178;2023-02-15T18:08:42;18.60;54.30
32400;DHT22;45045;45.440;9.178;2023-02-15T18:11:26;18.50;54.20
32400;DHT22;45045;45.440;9.178;2023-02-15T18:14:09;18.60;57.30
32400;DHT22;45045;45.440;9.178;2023-02-15T18:16:37;19.80;66.50
32400;DHT22;45045;45.440;9.178;2023-02-15T18:19:10;20.50;65.90
32400;DHT22;45045;45.440;9.178;2023-02-15T18:21:38;21.00;60.30
32400;DHT22;45045;45.440;9.178;2023-02-15T18:24:04;21.10;50.80
32400;DHT22;45045;45.440;9.178;2023-02-15T18:26:30;20.90;50.00
32400;DHT22;45045;45.440;9.178;2023-02-15T18:28:55;20.80;50.80
32400;DHT22;45045;45.440;9.178;2023-02-15T18:31:22;19.90;51.90
32400;DHT22;45045;45.440;9.178;2023-02-15T18:33:57;19.10;53.80
32400;DHT22;45045;45.440;9.178;2023-02-15T18:36:34;18.60;54.90
32400;DHT22;45045;45.440;9.178;2023-02-15T18:39:02;18.30;55.20
32400;DHT22;45045;45.440;9.178;2023-02-15T18:41:28;18.20;56.50
32400;DHT22;45045;45.440;9.178;2023-02-15T18:43:54;18.10;56.40
32400;DHT22;45045;45.440;9.178;2023-02-15T18:46:21;18.00;56.40
32400;DHT22;45045;45.440;9.178;2023-02-15T18:48:47;17.90;58.20
32400;DHT22;45045;45.440;9.178;2023-02-15T18:51:20;17.70;58.00
32400;DHT22;45045;45.440;9.178;2023-02-15T18:53:49;17.70;58.80
32400;DHT22;45045;45.440;9.178;2023-02-15T18:56:17;17.60;58.80
32400;DHT22;45045;45.440;9.178;2023-02-15T18:58:44;17.50;59.00
32400;DHT22;45045;45.440;9.178;2023-02-15T19:01:16;17.50;59.80
32400;DHT22;45045;45.440;9.178;2023-02-15T19:03:44;18.50;59.60
32400;DHT22;45045;45.440;9.178;2023-02-15T19:06:12;19.20;69.10
32400;DHT22;45045;45.440;9.178;2023-02-15T19:08:40;19.90;70.70
32400;DHT22;45045;45.440;9.178;2023-02-15T19:11:22;19.80;54.30
32400;DHT22;45045;45.440;9.178;2023-02-15T19:13:50;18.80;55.80
32400;DHT22;45045;45.440;9.178;2023-02-15T19:16:27;18.10;57.40
32400;DHT22;45045;45.440;9.178;2023-02-15T19:18:53;17.60;58.30
32400;DHT22;45045;45.440;9.178;2023-02-15T19:21:19;17.30;59.60
32400;DHT22;45045;45.440;9.178;2023-02-15T19:23:55;17.10;60.30